sensor_id;sensor_type;location;lat;lon;timestamp;P1;durP1;ratioP1;P2;durP2;ratioP2
13816;SDS011;6979;52.116;5.286;2024-03-22T00:01:59;30.40;;;27.23;;
13816;SDS011;6979;52.116;5.286;2024-03-22T00:04:26;30.77;;;27.67;;
13816;SDS011;6979;52.116;5.286;2024-03-22T00:06:51;30.07;;;27.13;;
13816;SDS011;6979;52.116;5.286;2024-03-22T00:09:23;31.70;;;28.30;;
13816;SDS011;6979;52.116;5.286;2024-03-22T00:11:49;30.87;;;27.87;;
13816;SDS011;6979;52.116;5.286;2024-03-22T00:14:17;28.67;;;26.00;;
13816;SDS011;6979;52.116;5.286;2024-03-22T00:16:43;28.67;;;25.87;;
13816;SDS011;6979;52.116;5.286;2024-03-22T00:19:10;31.30;;;28.30;;
13816;SDS011;6979;52.116;5.286;2024-03-22T00:21:36;31.20;;;28.03;;
13816;SDS011;6979;52.116;5.286;2024-03-22T00:24:03;30.13;;;27.13;;
13816;SDS011;6979;52.116;5.286;2024-03-22T00:26:30;28.40;;;25.33;;
13816;SDS011;6979;52.116;5.286;2024-03-22T00:28:56;29.33;;;26.47;;
13816;SDS011;6979;52.116;5.286;2024-03-22T00:31:24;28.43;;;25.53;;
13816;SDS011;6979;52.116;5.286;2024-03-22T00:33:51;29.77;;;26.70;;
13816;SDS011;6979;52.116;5.286;2024-03-22T00:36:17;28.80;;;25.73;;
13816;SDS011;6979;52.116;5.286;2024-03-22T00:38:44;31.67;;;28.20;;
13816;SDS011;6979;52.116;5.286;2024-03-22T00:41:10;30.27;;;27.10;;
13816;SDS011;6979;52.116;5.286;2024-03-22T00:43:38;32.37;;;28.93;;
13816;SDS011;6979;52.116;5.286;2024-03-22T00:46:04;33.00;;;29.53;;
13816;SDS011;6979;52.116;5.286;2024-03-22T00:48:34;30.23;;;27.27;;
13816;SDS011;6979;52.116;5.286;2024-03-22T00:51:00;30.50;;;27.20;;
13816;SDS011;6979;52.116;5.286;2024-03-22T00:53:28;33.17;;;29.63;;
13816;SDS011;6979;52.116;5.286;2024-03-22T00:55:54;32.33;;;29.10;;
13816;SDS011;6979;52.116;5.286;2024-03-22T00:58:24;31.40;;;28.27;;
13816;SDS011;6979;52.116;5.286;2024-03-22T01:00:50;33.73;;;30.30;;
13816;SDS011;6979;52.116;5.286;2024-03-22T01:03:18;32.63;;;29.27;;
13816;SDS011;6979;52.116;5.286;2024-03-22T01:05:45;31.23;;;28.13;;
13816;SDS011;6979;52.116;5.286;2024-03-22T01:08:12;31.67;;;28.33;;
13816;SDS011;6979;52.116;5.286;2024-03-22T01:10:37;30.83;;;27.73;;
13816;SDS011;6979;52.116;5.286;2024-03-22T01:13:05;30.60;;;27.53;;
13816;SDS011;6979;52.116;5.286;2024-03-22T01:15:31;32.07;;;28.73;;
13816;SDS011;6979;52.116;5.286;2024-03-22T01:17:58;30.53;;;26.50;;
13816;SDS011;6979;52.116;5.286;2024-03-22T01:20:24;31.63;;;28.33;;
13816;SDS011;6979;52.116;5.286;2024-03-22T01:22:52;31.83;;;28.63;;
13816;SDS011;6979;52.116;5.286;2024-03-22T01:25:18;30.67;;;27.57;;
13816;SDS011;6979;52.116;5.286;2024-03-22T01:27:45;27.97;;;25.13;;
13816;SDS011;6979;52.116;5.286;2024-03-22T01:30:11;30.83;;;27.53;;
13816;SDS011;6979;52.116;5.286;2024-03-22T01:32:37;30.77;;;27.63;;
13816;SDS011;6979;52.116;5.286;2024-03-22T01:35:04;32.33;;;28.80;;
13816;SDS011;6979;52.116;5.286;2024-03-22T01:37:31;29.93;;;26.90;;
13816;SDS011;6979;52.116;5.286;2024-03-22T01:39:59;31.20;;;27.70;;
13816;SDS011;6979;52.116;5.286;2024-03-22T01:42:28;29.83;;;26.83;;
13816;SDS011;6979;52.116;5.286;2024-03-22T01:44:54;30.90;;;27.60;;
13816;SDS011;6979;52.116;5.286;2024-03-22T01:47:21;29.67;;;26.70;;
13816;SDS011;6979;52.116;5.286;2024-03-22T01:49:47;30.13;;;27.10;;
13816;SDS011;6979;52.116;5.286;2024-03-22T01:52:15;29.90;;;26.90;;
13816;SDS011;6979;52.116;5.286;2024-03-22T01:54:41;28.83;;;25.97;;
13816;SDS011;6979;52.116;5.286;2024-03-22T01:57:10;29.67;;;26.77;;
13816;SDS011;6979;52.116;5.286;2024-03-22T01:59:35;30.47;;;27.17;;
13816;SDS011;6979;52.116;5.286;2024-03-22T02:02:06;30.83;;;27.47;;
13816;SDS011;6979;52.116;5.286;2024-03-22T02:04:36;31.80;;;28.27;;
13816;SDS011;6979;52.116;5.286;2024-03-22T02:07:03;34.00;;;30.40;;
13816;SDS011;6979;52.116;5.286;2024-03-22T02:09:29;30.83;;;27.57;;
13816;SDS011;6979;52.116;5.286;2024-03-22T02:11:56;33.70;;;30.23;;
13816;SDS011;6979;52.116;5.286;2024-03-22T02:14:23;35.63;;;29.93;;
13816;SDS011;6979;52.116;5.286;2024-03-22T02:16:50;34.97;;;31.20;;
13816;SDS011;6979;52.116;5.286;2024-03-22T02:19:16;33.03;;;29.60;;
13816;SDS011;6979;52.116;5.286;2024-03-22T02:21:43;34.60;;;30.87;;
13816;SDS011;6979;52.116;5.286;2024-03-22T02:24:16;37.73;;;33.80;;
13816;SDS011;6979;52.116;5.286;2024-03-22T02:26:43;34.50;;;30.83;;
13816;SDS011;6979;52.116;5.286;2024-03-22T02:29:09;35.47;;;31.77;;
13816;SDS011;6979;52.116;5.286;2024-03-22T02:31:36;36.37;;;32.70;;
13816;SDS011;6979;52.116;5.286;2024-03-22T02:34:02;39.70;;;35.40;;
13816;SDS011;6979;52.116;5.286;2024-03-22T02:36:31;37.60;;;33.57;;
13816;SDS011;6979;52.116;5.286;2024-03-22T02:38:57;40.10;;;35.67;;
13816;SDS011;6979;52.116;5.286;2024-03-22T02:41:25;41.30;;;36.83;;
13816;SDS011;6979;52.116;5.286;2024-03-22T02:43:52;42.80;;;37.03;;
13816;SDS011;6979;52.116;5.286;2024-03-22T02:46:18;42.33;;;37.17;;
13816;SDS011;6979;52.116;5.286;2024-03-22T02:48:45;41.50;;;37.00;;
13816;SDS011;6979;52.116;5.286;2024-03-22T02:51:11;41.23;;;35.27;;
13816;SDS011;6979;52.116;5.286;2024-03-22T02:53:38;41.50;;;36.80;;
13816;SDS011;6979;52.116;5.286;2024-03-22T02:56:04;41.37;;;36.97;;
13816;SDS011;6979;52.116;5.286;2024-03-22T02:58:32;40.20;;;35.87;;
13816;SDS011;6979;52.116;5.286;2024-03-22T03:01:00;41.47;;;37.03;;
13816;SDS011;6979;52.116;5.286;2024-03-22T03:03:27;45.10;;;37.43;;
13816;SDS011;6979;52.116;5.286;2024-03-22T03:05:53;41.17;;;35.93;;
13816;SDS011;6979;52.116;5.286;2024-03-22T03:08:20;37.83;;;31.50;;
13816;SDS011;6979;52.116;5.286;2024-03-22T03:10:46;35.77;;;31.80;;
13816;SDS011;6979;52.116;5.286;2024-03-22T03:13:13;35.60;;;31.77;;
13816;SDS011;6979;52.116;5.286;2024-03-22T03:15:40;39.57;;;34.43;;
13816;SDS011;6979;52.116;5.286;2024-03-22T03:18:11;38.60;;;34.53;;
13816;SDS011;6979;52.116;5.286;2024-03-22T03:20:37;39.63;;;35.07;;
13816;SDS011;6979;52.116;5.286;2024-03-22T03:23:07;41.53;;;36.27;;
13816;SDS011;6979;52.116;5.286;2024-03-22T03:25:33;39.73;;;34.83;;
13816;SDS011;6979;52.116;5.286;2024-03-22T03:28:00;38.90;;;34.17;;
13816;SDS011;6979;52.116;5.286;2024-03-22T03:30:26;39.83;;;34.63;;
13816;SDS011;6979;52.116;5.286;2024-03-22T03:32:54;39.13;;;33.63;;
13816;SDS011;6979;52.116;5.286;2024-03-22T03:35:22;36.43;;;32.30;;
13816;SDS011;6979;52.116;5.286;2024-03-22T03:37:50;41.23;;;32.97;;
13816;SDS011;6979;52.116;5.286;2024-03-22T03:40:16;36.97;;;31.40;;
13816;SDS011;6979;52.116;5.286;2024-03-22T03:42:43;35.83;;;30.47;;
13816;SDS011;6979;52.116;5.286;2024-03-22T03:45:11;34.77;;;27.90;;
13816;SDS011;6979;52.116;5.286;2024-03-22T03:47:38;34.20;;;29.47;;
13816;SDS011;6979;52.116;5.286;2024-03-22T03:50:05;36.57;;;30.27;;
13816;SDS011;6979;52.116;5.286;2024-03-22T03:52:37;37.83;;;28.70;;
13816;SDS011;6979;52.116;5.286;2024-03-22T03:55:03;34.73;;;28.23;;
13816;SDS011;6979;52.116;5.286;2024-03-22T03:57:33;35.77;;;27.53;;
13816;SDS011;6979;52.116;5.286;2024-03-22T03:59:59;29.13;;;24.90;;
13816;SDS011;6979;52.116;5.286;2024-03-22T04:02:26;32.00;;;25.90;;
13816;SDS011;6979;52.116;5.286;2024-03-22T04:04:52;33.57;;;27.40;;
13816;SDS011;6979;52.116;5.286;2024-03-22T04:07:21;28.97;;;24.80;;
13816;SDS011;6979;52.116;5.286;2024-03-22T04:09:47;32.67;;;27.20;;
13816;SDS011;6979;52.116;5.286;2024-03-22T04:12:13;32.23;;;25.63;;
13816;SDS011;6979;52.116;5.286;2024-03-22T04:14:39;29.97;;;26.67;;
13816;SDS011;6979;52.116;5.286;2024-03-22T04:17:08;31.07;;;27.57;;
13816;SDS011;6979;52.116;5.286;2024-03-22T04:19:41;34.73;;;28.30;;
13816;SDS011;6979;52.116;5.286;2024-03-22T04:22:08;29.20;;;26.03;;
13816;SDS011;6979;52.116;5.286;2024-03-22T04:24:37;32.57;;;26.73;;
13816;SDS011;6979;52.116;5.286;2024-03-22T04:27:04;31.60;;;27.03;;
13816;SDS011;6979;52.116;5.286;2024-03-22T04:29:30;34.37;;;27.20;;
13816;SDS011;6979;52.116;5.286;2024-03-22T04:31:57;30.53;;;26.97;;
13816;SDS011;6979;52.116;5.286;2024-03-22T04:34:23;32.67;;;27.27;;
13816;SDS011;6979;52.116;5.286;2024-03-22T04:36:50;31.73;;;27.63;;
13816;SDS011;6979;52.116;5.286;2024-03-22T04:39:17;30.13;;;26.87;;
13816;SDS011;6979;52.116;5.286;2024-03-22T04:41:46;34.90;;;30.70;;
13816;SDS011;6979;52.116;5.286;2024-03-22T04:44:16;37.03;;;30.80;;
13816;SDS011;6979;52.116;5.286;2024-03-22T04:46:46;36.27;;;31.30;;
13816;SDS011;6979;52.116;5.286;2024-03-22T04:49:15;36.80;;;31.10;;
13816;SDS011;6979;52.116;5.286;2024-03-22T04:51:41;30.10;;;26.60;;
13816;SDS011;6979;52.116;5.286;2024-03-22T04:54:07;33.47;;;27.50;;
13816;SDS011;6979;52.116;5.286;2024-03-22T04:56:38;33.70;;;26.67;;
13816;SDS011;6979;52.116;5.286;2024-03-22T04:59:06;34.17;;;27.53;;
13816;SDS011;6979;52.116;5.286;2024-03-22T05:01:34;37.07;;;31.30;;
13816;SDS011;6979;52.116;5.286;2024-03-22T05:03:59;36.73;;;31.80;;
13816;SDS011;6979;52.116;5.286;2024-03-22T05:06:26;37.20;;;31.67;;
13816;SDS011;6979;52.116;5.286;2024-03-22T05:08:52;38.23;;;34.10;;
13816;SDS011;6979;52.116;5.286;2024-03-22T05:11:22;37.43;;;31.70;;
13816;SDS011;6979;52.116;5.286;2024-03-22T05:13:58;37.33;;;32.77;;
13816;SDS011;6979;52.116;5.286;2024-03-22T05:16:26;36.17;;;32.20;;
13816;SDS011;6979;52.116;5.286;2024-03-22T05:18:52;36.00;;;30.67;;
13816;SDS011;6979;52.116;5.286;2024-03-22T05:21:19;41.43;;;32.70;;
13816;SDS011;6979;52.116;5.286;2024-03-22T05:23:45;36.93;;;32.10;;
13816;SDS011;6979;52.116;5.286;2024-03-22T05:26:12;40.30;;;33.93;;
13816;SDS011;6979;52.116;5.286;2024-03-22T05:28:38;36.47;;;31.70;;
13816;SDS011;6979;52.116;5.286;2024-03-22T05:31:05;34.07;;;29.77;;
13816;SDS011;6979;52.116;5.286;2024-03-22T05:33:36;35.57;;;31.40;;
13816;SDS011;6979;52.116;5.286;2024-03-22T05:36:03;34.80;;;29.53;;
13816;SDS011;6979;52.116;5.286;2024-03-22T05:38:29;38.93;;;33.10;;
13816;SDS011;6979;52.116;5.286;2024-03-22T05:40:56;35.87;;;32.10;;
13816;SDS011;6979;52.116;5.286;2024-03-22T05:43:22;36.03;;;31.30;;
13816;SDS011;6979;52.116;5.286;2024-03-22T05:45:49;38.70;;;31.37;;
13816;SDS011;6979;52.116;5.286;2024-03-22T05:48:15;34.60;;;29.40;;
13816;SDS011;6979;52.116;5.286;2024-03-22T05:50:43;32.93;;;28.53;;
13816;SDS011;6979;52.116;5.286;2024-03-22T05:53:10;31.73;;;27.43;;
13816;SDS011;6979;52.116;5.286;2024-03-22T05:55:36;33.03;;;29.10;;
13816;SDS011;6979;52.116;5.286;2024-03-22T05:58:03;36.93;;;32.97;;
13816;SDS011;6979;52.116;5.286;2024-03-22T06:00:30;33.67;;;30.07;;
13816;SDS011;6979;52.116;5.286;2024-03-22T06:02:56;33.77;;;27.53;;
13816;SDS011;6979;52.116;5.286;2024-03-22T06:05:22;34.00;;;30.07;;
13816;SDS011;6979;52.116;5.286;2024-03-22T06:07:50;34.93;;;31.07;;
13816;SDS011;6979;52.116;5.286;2024-03-22T06:10:16;41.77;;;32.53;;
13816;SDS011;6979;52.116;5.286;2024-03-22T06:12:43;34.77;;;30.83;;
13816;SDS011;6979;52.116;5.286;2024-03-22T06:15:12;35.13;;;29.13;;
13816;SDS011;6979;52.116;5.286;2024-03-22T06:17:40;38.30;;;30.93;;
13816;SDS011;6979;52.116;5.286;2024-03-22T06:20:08;35.00;;;29.97;;
13816;SDS011;6979;52.116;5.286;2024-03-22T06:22:38;31.97;;;28.57;;
13816;SDS011;6979;52.116;5.286;2024-03-22T06:25:06;36.13;;;28.40;;
13816;SDS011;6979;52.116;5.286;2024-03-22T06:27:33;29.90;;;26.50;;
13816;SDS011;6979;52.116;5.286;2024-03-22T06:30:01;31.97;;;27.83;;
13816;SDS011;6979;52.116;5.286;2024-03-22T06:32:28;32.97;;;27.00;;
13816;SDS011;6979;52.116;5.286;2024-03-22T06:34:54;28.57;;;25.03;;
13816;SDS011;6979;52.116;5.286;2024-03-22T06:37:22;27.97;;;24.03;;
13816;SDS011;6979;52.116;5.286;2024-03-22T06:39:48;26.63;;;23.83;;
13816;SDS011;6979;52.116;5.286;2024-03-22T06:42:17;27.33;;;24.43;;
13816;SDS011;6979;52.116;5.286;2024-03-22T06:44:43;27.23;;;23.47;;
13816;SDS011;6979;52.116;5.286;2024-03-22T06:47:10;27.97;;;23.07;;
13816;SDS011;6979;52.116;5.286;2024-03-22T06:49:35;26.43;;;23.23;;
13816;SDS011;6979;52.116;5.286;2024-03-22T06:52:02;26.37;;;23.00;;
13816;SDS011;6979;52.116;5.286;2024-03-22T06:54:29;26.67;;;23.17;;
13816;SDS011;6979;52.116;5.286;2024-03-22T06:56:56;29.13;;;23.83;;
13816;SDS011;6979;52.116;5.286;2024-03-22T06:59:23;25.27;;;22.03;;
13816;SDS011;6979;52.116;5.286;2024-03-22T07:01:50;26.00;;;21.93;;
13816;SDS011;6979;52.116;5.286;2024-03-22T07:04:15;27.13;;;24.30;;
13816;SDS011;6979;52.116;5.286;2024-03-22T07:06:42;27.50;;;23.87;;
13816;SDS011;6979;52.116;5.286;2024-03-22T07:09:08;29.60;;;24.90;;
13816;SDS011;6979;52.116;5.286;2024-03-22T07:11:35;27.83;;;24.73;;
13816;SDS011;6979;52.116;5.286;2024-03-22T07:14:01;27.10;;;24.10;;
13816;SDS011;6979;52.116;5.286;2024-03-22T07:16:29;24.10;;;21.60;;
13816;SDS011;6979;52.116;5.286;2024-03-22T07:18:55;25.17;;;22.47;;
13816;SDS011;6979;52.116;5.286;2024-03-22T07:21:22;27.27;;;23.10;;
13816;SDS011;6979;52.116;5.286;2024-03-22T07:23:48;30.67;;;23.03;;
13816;SDS011;6979;52.116;5.286;2024-03-22T07:26:14;25.20;;;21.27;;
13816;SDS011;6979;52.116;5.286;2024-03-22T07:28:40;26.60;;;22.63;;
13816;SDS011;6979;52.116;5.286;2024-03-22T07:31:07;24.80;;;21.77;;
13816;SDS011;6979;52.116;5.286;2024-03-22T07:33:35;27.40;;;22.97;;
13816;SDS011;6979;52.116;5.286;2024-03-22T07:36:04;25.50;;;21.17;;
13816;SDS011;6979;52.116;5.286;2024-03-22T07:38:31;23.90;;;20.43;;
13816;SDS011;6979;52.116;5.286;2024-03-22T07:40:58;26.73;;;21.17;;
13816;SDS011;6979;52.116;5.286;2024-03-22T07:43:24;28.27;;;22.47;;
13816;SDS011;6979;52.116;5.286;2024-03-22T07:45:50;25.27;;;22.47;;
13816;SDS011;6979;52.116;5.286;2024-03-22T07:48:16;27.37;;;21.93;;
13816;SDS011;6979;52.116;5.286;2024-03-22T07:50:44;24.47;;;21.87;;
13816;SDS011;6979;52.116;5.286;2024-03-22T07:53:10;24.53;;;21.93;;
13816;SDS011;6979;52.116;5.286;2024-03-22T07:55:38;26.13;;;23.13;;
13816;SDS011;6979;52.116;5.286;2024-03-22T07:58:04;25.47;;;22.67;;
13816;SDS011;6979;52.116;5.286;2024-03-22T08:00:31;36.63;;;27.70;;
13816;SDS011;6979;52.116;5.286;2024-03-22T08:02:57;26.83;;;23.23;;
13816;SDS011;6979;52.116;5.286;2024-03-22T08:05:24;25.40;;;22.57;;
13816;SDS011;6979;52.116;5.286;2024-03-22T08:07:51;27.87;;;24.20;;
13816;SDS011;6979;52.116;5.286;2024-03-22T08:10:18;26.93;;;22.03;;
13816;SDS011;6979;52.116;5.286;2024-03-22T08:12:44;26.83;;;21.80;;
13816;SDS011;6979;52.116;5.286;2024-03-22T08:15:11;26.10;;;22.20;;
13816;SDS011;6979;52.116;5.286;2024-03-22T08:17:37;23.07;;;20.53;;
13816;SDS011;6979;52.116;5.286;2024-03-22T08:20:04;27.03;;;23.20;;
13816;SDS011;6979;52.116;5.286;2024-03-22T08:22:32;24.20;;;20.73;;
13816;SDS011;6979;52.116;5.286;2024-03-22T08:25:01;29.03;;;20.87;;
13816;SDS011;6979;52.116;5.286;2024-03-22T08:27:27;22.20;;;19.70;;
13816;SDS011;6979;52.116;5.286;2024-03-22T08:29:54;25.17;;;19.43;;
13816;SDS011;6979;52.116;5.286;2024-03-22T08:32:22;20.50;;;18.37;;
13816;SDS011;6979;52.116;5.286;2024-03-22T08:34:49;22.43;;;19.00;;
13816;SDS011;6979;52.116;5.286;2024-03-22T08:37:15;21.40;;;17.37;;
13816;SDS011;6979;52.116;5.286;2024-03-22T08:39:44;20.23;;;17.87;;
13816;SDS011;6979;52.116;5.286;2024-03-22T08:42:11;17.13;;;15.13;;
13816;SDS011;6979;52.116;5.286;2024-03-22T08:44:38;17.83;;;14.47;;
13816;SDS011;6979;52.116;5.286;2024-03-22T08:47:04;20.40;;;13.50;;
13816;SDS011;6979;52.116;5.286;2024-03-22T08:49:31;16.53;;;13.03;;
13816;SDS011;6979;52.116;5.286;2024-03-22T08:51:57;15.27;;;13.60;;
13816;SDS011;6979;52.116;5.286;2024-03-22T08:54:23;15.80;;;13.30;;
13816;SDS011;6979;52.116;5.286;2024-03-22T08:56:49;14.77;;;13.10;;
13816;SDS011;6979;52.116;5.286;2024-03-22T08:59:18;15.33;;;12.67;;
13816;SDS011;6979;52.116;5.286;2024-03-22T09:01:44;17.97;;;13.13;;
13816;SDS011;6979;52.116;5.286;2024-03-22T09:04:13;13.10;;;11.43;;
13816;SDS011;6979;52.116;5.286;2024-03-22T09:06:40;17.20;;;13.00;;
13816;SDS011;6979;52.116;5.286;2024-03-22T09:09:10;19.33;;;14.27;;
13816;SDS011;6979;52.116;5.286;2024-03-22T09:11:39;14.10;;;11.33;;
13816;SDS011;6979;52.116;5.286;2024-03-22T09:14:06;16.37;;;11.60;;
13816;SDS011;6979;52.116;5.286;2024-03-22T09:16:33;15.00;;;12.40;;
13816;SDS011;6979;52.116;5.286;2024-03-22T09:19:00;15.03;;;11.70;;
13816;SDS011;6979;52.116;5.286;2024-03-22T09:21:26;16.50;;;12.33;;
13816;SDS011;6979;52.116;5.286;2024-03-22T09:23:53;17.47;;;12.13;;
13816;SDS011;6979;52.116;5.286;2024-03-22T09:26:19;14.50;;;12.83;;
13816;SDS011;6979;52.116;5.286;2024-03-22T09:28:46;18.57;;;13.07;;
13816;SDS011;6979;52.116;5.286;2024-03-22T09:31:12;14.73;;;12.80;;
13816;SDS011;6979;52.116;5.286;2024-03-22T09:33:40;15.33;;;12.30;;
13816;SDS011;6979;52.116;5.286;2024-03-22T09:36:07;14.57;;;12.00;;
13816;SDS011;6979;52.116;5.286;2024-03-22T09:38:37;16.10;;;11.40;;
13816;SDS011;6979;52.116;5.286;2024-03-22T09:41:03;13.67;;;12.20;;
13816;SDS011;6979;52.116;5.286;2024-03-22T09:43:33;13.57;;;12.10;;
13816;SDS011;6979;52.116;5.286;2024-03-22T09:46:00;12.90;;;11.23;;
13816;SDS011;6979;52.116;5.286;2024-03-22T09:48:29;12.00;;;10.70;;
13816;SDS011;6979;52.116;5.286;2024-03-22T09:51:00;11.73;;;10.17;;
13816;SDS011;6979;52.116;5.286;2024-03-22T09:53:29;14.00;;;11.13;;
13816;SDS011;6979;52.116;5.286;2024-03-22T09:55:56;11.57;;;10.33;;
13816;SDS011;6979;52.116;5.286;2024-03-22T09:58:26;11.53;;;10.27;;
13816;SDS011;6979;52.116;5.286;2024-03-22T10:00:53;11.63;;;9.97;;
13816;SDS011;6979;52.116;5.286;2024-03-22T10:03:25;14.57;;;10.00;;
13816;SDS011;6979;52.116;5.286;2024-03-22T10:05:51;9.73;;;8.73;;
13816;SDS011;6979;52.116;5.286;2024-03-22T10:08:23;10.20;;;8.37;;
13816;SDS011;6979;52.116;5.286;2024-03-22T10:10:49;9.57;;;8.57;;
13816;SDS011;6979;52.116;5.286;2024-03-22T10:13:18;10.77;;;9.67;;
13816;SDS011;6979;52.116;5.286;2024-03-22T10:15:45;8.90;;;8.13;;
13816;SDS011;6979;52.116;5.286;2024-03-22T10:18:12;11.43;;;10.17;;
13816;SDS011;6979;52.116;5.286;2024-03-22T10:20:40;11.00;;;9.90;;
13816;SDS011;6979;52.116;5.286;2024-03-22T10:23:07;11.03;;;10.03;;
13816;SDS011;6979;52.116;5.286;2024-03-22T10:25:34;9.83;;;9.13;;
13816;SDS011;6979;52.116;5.286;2024-03-22T10:28:02;10.87;;;9.87;;
13816;SDS011;6979;52.116;5.286;2024-03-22T10:30:35;10.60;;;9.70;;
13816;SDS011;6979;52.116;5.286;2024-03-22T10:33:03;12.30;;;10.77;;
13816;SDS011;6979;52.116;5.286;2024-03-22T10:35:30;10.53;;;9.53;;
13816;SDS011;6979;52.116;5.286;2024-03-22T10:37:58;10.23;;;9.20;;
13816;SDS011;6979;52.116;5.286;2024-03-22T10:40:24;9.73;;;8.80;;
13816;SDS011;6979;52.116;5.286;2024-03-22T10:42:57;10.87;;;9.77;;
13816;SDS011;6979;52.116;5.286;2024-03-22T10:45:23;11.83;;;10.60;;
13816;SDS011;6979;52.116;5.286;2024-03-22T10:47:53;12.10;;;10.90;;
13816;SDS011;6979;52.116;5.286;2024-03-22T10:50:20;12.00;;;10.80;;
13816;SDS011;6979;52.116;5.286;2024-03-22T10:52:50;12.43;;;11.17;;
13816;SDS011;6979;52.116;5.286;2024-03-22T10:55:18;11.00;;;10.10;;
13816;SDS011;6979;52.116;5.286;2024-03-22T10:57:50;12.63;;;11.23;;
13816;SDS011;6979;52.116;5.286;2024-03-22T11:00:17;13.10;;;11.60;;
13816;SDS011;6979;52.116;5.286;2024-03-22T11:02:53;12.43;;;11.30;;
13816;SDS011;6979;52.116;5.286;2024-03-22T11:05:21;12.97;;;11.80;;
13816;SDS011;6979;52.116;5.286;2024-03-22T11:07:58;12.00;;;10.93;;
13816;SDS011;6979;52.116;5.286;2024-03-22T11:10:25;12.63;;;11.53;;
13816;SDS011;6979;52.116;5.286;2024-03-22T11:12:55;11.83;;;10.77;;
13816;SDS011;6979;52.116;5.286;2024-03-22T11:15:23;10.33;;;9.50;;
13816;SDS011;6979;52.116;5.286;2024-03-22T11:17:52;9.73;;;9.00;;
13816;SDS011;6979;52.116;5.286;2024-03-22T11:20:20;11.10;;;10.07;;
13816;SDS011;6979;52.116;5.286;2024-03-22T11:22:51;10.17;;;9.17;;
13816;SDS011;6979;52.116;5.286;2024-03-22T11:25:16;10.27;;;9.37;;
13816;SDS011;6979;52.116;5.286;2024-03-22T11:27:44;9.87;;;8.97;;
13816;SDS011;6979;52.116;5.286;2024-03-22T11:30:12;8.97;;;8.00;;
13816;SDS011;6979;52.116;5.286;2024-03-22T11:32:42;9.50;;;8.80;;
13816;SDS011;6979;52.116;5.286;2024-03-22T11:35:10;8.53;;;7.83;;
13816;SDS011;6979;52.116;5.286;2024-03-22T11:37:39;9.60;;;8.70;;
13816;SDS011;6979;52.116;5.286;2024-03-22T11:40:08;9.07;;;8.27;;
13816;SDS011;6979;52.116;5.286;2024-03-22T11:42:36;7.57;;;6.97;;
13816;SDS011;6979;52.116;5.286;2024-03-22T11:45:05;6.97;;;6.30;;
13816;SDS011;6979;52.116;5.286;2024-03-22T11:47:35;6.60;;;6.00;;
13816;SDS011;6979;52.116;5.286;2024-03-22T11:50:04;6.27;;;5.77;;
13816;SDS011;6979;52.116;5.286;2024-03-22T11:52:32;5.87;;;5.47;;
13816;SDS011;6979;52.116;5.286;2024-03-22T11:54:58;5.63;;;5.23;;
13816;SDS011;6979;52.116;5.286;2024-03-22T11:57:24;5.50;;;5.10;;
13816;SDS011;6979;52.116;5.286;2024-03-22T11:59:51;5.57;;;5.07;;
13816;SDS011;6979;52.116;5.286;2024-03-22T12:02:26;5.73;;;5.17;;
13816;SDS011;6979;52.116;5.286;2024-03-22T12:04:52;5.20;;;4.83;;
13816;SDS011;6979;52.116;5.286;2024-03-22T12:07:23;14.30;;;12.93;;
13816;SDS011;6979;52.116;5.286;2024-03-22T12:09:49;6.70;;;6.10;;
13816;SDS011;6979;52.116;5.286;2024-03-22T12:12:17;5.73;;;5.23;;
13816;SDS011;6979;52.116;5.286;2024-03-22T12:14:48;7.43;;;6.77;;
13816;SDS011;6979;52.116;5.286;2024-03-22T12:17:16;6.70;;;6.03;;
13816;SDS011;6979;52.116;5.286;2024-03-22T12:19:42;6.90;;;6.30;;
13816;SDS011;6979;52.116;5.286;2024-03-22T12:22:09;7.17;;;6.57;;
13816;SDS011;6979;52.116;5.286;2024-03-22T12:24:40;6.87;;;6.27;;
13816;SDS011;6979;52.116;5.286;2024-03-22T12:27:07;7.83;;;6.87;;
13816;SDS011;6979;52.116;5.286;2024-03-22T12:29:33;7.60;;;6.90;;
13816;SDS011;6979;52.116;5.286;2024-03-22T12:32:02;7.53;;;6.83;;
13816;SDS011;6979;52.116;5.286;2024-03-22T12:34:31;7.73;;;7.13;;
13816;SDS011;6979;52.116;5.286;2024-03-22T12:36:59;8.57;;;7.83;;
13816;SDS011;6979;52.116;5.286;2024-03-22T12:39:27;9.60;;;8.80;;
13816;SDS011;6979;52.116;5.286;2024-03-22T12:41:55;9.67;;;8.73;;
13816;SDS011;6979;52.116;5.286;2024-03-22T12:44:21;15.13;;;13.53;;
13816;SDS011;6979;52.116;5.286;2024-03-22T12:46:50;12.17;;;10.97;;
13816;SDS011;6979;52.116;5.286;2024-03-22T12:49:17;12.33;;;9.67;;
13816;SDS011;6979;52.116;5.286;2024-03-22T12:51:44;11.27;;;10.17;;
13816;SDS011;6979;52.116;5.286;2024-03-22T12:54:11;10.50;;;9.50;;
13816;SDS011;6979;52.116;5.286;2024-03-22T12:56:39;10.63;;;9.70;;
13816;SDS011;6979;52.116;5.286;2024-03-22T12:59:07;9.57;;;8.57;;
13816;SDS011;6979;52.116;5.286;2024-03-22T13:01:34;12.80;;;9.50;;
13816;SDS011;6979;52.116;5.286;2024-03-22T13:04:01;8.90;;;8.10;;
13816;SDS011;6979;52.116;5.286;2024-03-22T13:06:28;11.60;;;9.17;;
13816;SDS011;6979;52.116;5.286;2024-03-22T13:08:54;9.27;;;8.37;;
13816;SDS011;6979;52.116;5.286;2024-03-22T13:11:21;9.90;;;8.93;;
13816;SDS011;6979;52.116;5.286;2024-03-22T13:13:47;10.27;;;9.13;;
13816;SDS011;6979;52.116;5.286;2024-03-22T13:16:17;10.03;;;9.10;;
13816;SDS011;6979;52.116;5.286;2024-03-22T13:18:43;10.43;;;9.43;;
13816;SDS011;6979;52.116;5.286;2024-03-22T13:21:09;10.30;;;9.40;;
13816;SDS011;6979;52.116;5.286;2024-03-22T13:23:36;9.77;;;8.77;;
13816;SDS011;6979;52.116;5.286;2024-03-22T13:26:03;9.50;;;8.50;;
13816;SDS011;6979;52.116;5.286;2024-03-22T13:28:30;10.03;;;9.10;;
13816;SDS011;6979;52.116;5.286;2024-03-22T13:31:00;9.33;;;8.43;;
13816;SDS011;6979;52.116;5.286;2024-03-22T13:33:29;8.33;;;7.60;;
13816;SDS011;6979;52.116;5.286;2024-03-22T13:35:56;8.23;;;7.40;;
13816;SDS011;6979;52.116;5.286;2024-03-22T13:38:22;9.13;;;7.57;;
13816;SDS011;6979;52.116;5.286;2024-03-22T13:40:53;10.30;;;8.47;;
13816;SDS011;6979;52.116;5.286;2024-03-22T13:43:19;9.60;;;7.93;;
13816;SDS011;6979;52.116;5.286;2024-03-22T13:45:47;9.37;;;8.33;;
13816;SDS011;6979;52.116;5.286;2024-03-22T13:48:19;9.33;;;8.47;;
13816;SDS011;6979;52.116;5.286;2024-03-22T13:50:50;9.40;;;8.57;;
13816;SDS011;6979;52.116;5.286;2024-03-22T13:53:17;8.83;;;7.93;;
13816;SDS011;6979;52.116;5.286;2024-03-22T13:55:44;9.47;;;8.00;;
13816;SDS011;6979;52.116;5.286;2024-03-22T13:58:10;10.20;;;9.10;;
13816;SDS011;6979;52.116;5.286;2024-03-22T14:00:37;9.97;;;8.77;;
13816;SDS011;6979;52.116;5.286;2024-03-22T14:03:04;9.90;;;8.57;;
13816;SDS011;6979;52.116;5.286;2024-03-22T14:05:33;9.73;;;8.73;;
13816;SDS011;6979;52.116;5.286;2024-03-22T14:08:01;10.90;;;9.30;;
13816;SDS011;6979;52.116;5.286;2024-03-22T14:10:28;9.83;;;8.83;;
13816;SDS011;6979;52.116;5.286;2024-03-22T14:12:56;9.77;;;8.70;;
13816;SDS011;6979;52.116;5.286;2024-03-22T14:15:23;12.03;;;10.17;;
13816;SDS011;6979;52.116;5.286;2024-03-22T14:17:51;10.97;;;9.97;;
13816;SDS011;6979;52.116;5.286;2024-03-22T14:20:19;14.43;;;10.43;;
13816;SDS011;6979;52.116;5.286;2024-03-22T14:22:45;12.33;;;10.50;;
13816;SDS011;6979;52.116;5.286;2024-03-22T14:25:14;14.53;;;10.90;;
13816;SDS011;6979;52.116;5.286;2024-03-22T14:27:41;12.17;;;10.50;;
13816;SDS011;6979;52.116;5.286;2024-03-22T14:30:10;13.37;;;10.43;;
13816;SDS011;6979;52.116;5.286;2024-03-22T14:32:38;11.30;;;10.00;;
13816;SDS011;6979;52.116;5.286;2024-03-22T14:35:05;11.50;;;9.77;;
13816;SDS011;6979;52.116;5.286;2024-03-22T14:37:33;14.07;;;9.73;;
13816;SDS011;6979;52.116;5.286;2024-03-22T14:39:59;22.20;;;20.00;;
13816;SDS011;6979;52.116;5.286;2024-03-22T14:42:27;15.60;;;12.10;;